This demonstration page uses our WeatherBlox Daily Observations layout. Learn more.

41.55636, -103.73856

Hourly Observations for May 14, 2018

Temp ( °F °C ) Dew Point ( °F °C ) Humidity (%) Winds ( mph kmh ) Pressure ( in mb ) Visibility ( mi km ) Precip ( " mm )
12:58 am 00:58 Mostly Cloudy 50 9.9 48 8.9 94 94 E 12 19 29.97 1015 10 16.0934 0.05 1.27
1:58 am 01:58 Partly Cloudy 48 9.1 47 8.2 94 94 Calm 29.97 1015 10 16.0934 N/A
2:58 am 02:58 Clear 46 7.7 44 6.8 94 94 W 8 13 29.99 1016 10 16.0934 0 0
3:58 am 03:58 Mostly Cloudy 46 7.8 44 6.9 94 94 W 7 11 30.01 1016 10 16.0934 N/A
4:58 am 04:58 Mostly Cloudy 46 7.8 45 7 95 95 WSW 6 9 30.01 1016 10 16.0934 N/A
5:58 am 05:58 Mostly Sunny 44 6.8 43 6 95 95 WNW 8 13 30.03 1017 10 16.0934 0 0
6:58 am 06:58 Sunny 47 8.6 46 7.9 95 95 WNW 9 15 30.03 1017 10 16.0934 N/A
7:58 am 07:58 Sunny 55 13 50 10 82 82 WNW 9 15 30.01 1016 10 16.0934 N/A
8:58 am 08:58 Partly Cloudy 56 13.4 52 11 86 86 N 13 20 30.04 1017 10 16.0934 N/A
9:58 am 09:58 Mostly Cloudy 56 13.4 50 9.9 80 80 N 8 13 30.04 1017 10 16.0934 N/A
10:58 am 10:58 Mostly Sunny 59 14.8 51 10.4 75 75 Calm 30.02 1017 10 16.0934 N/A
11:58 am 11:58 Mostly Cloudy 59 15.2 49 9.4 69 69 N 5 7 30.01 1016 10 16.0934 N/A
12:58 pm 12:58 Cloudy 60 15.5 48 9.1 66 66 Calm 30 1016 10 16.0934 N/A
1:58 pm 13:58 Cloudy 61 16.3 48 9.1 63 63 ENE 8 13 29.99 1016 10 16.0934 N/A
2:58 pm 14:58 Cloudy 61 16.1 48 9.1 63 63 E 12 19 30 1016 10 16.0934 N/A
3:58 pm 15:58 Mostly Cloudy 59 15.1 49 9.2 68 68 ESE 13 20 30 1016 10 16.0934 N/A
4:58 pm 16:58 Cloudy with Showers 50 9.9 44 6.9 82 82 WNW 23 37 30.08 1019 10 16.0934 0.02 0.508
5:58 pm 17:58 Cloudy with Light Rain 51 10.4 45 7 80 80 NE 25 41 30.06 1018 10 16.0934 0.14 3.556
6:58 pm 18:58 Mostly Cloudy 52 11.1 43 6.3 73 73 W 7 11 30.02 1017 10 16.0934 0.01 0.254
7:58 pm 19:58 Sunny 49 9.4 44 6.9 85 85 N 16 26 30.04 1017 10 16.0934 N/A
8:58 pm 20:58 Clear 45 7.4 43 6.1 92 92 N 9 15 30.07 1018 10 16.0934 0 0
9:58 pm 21:58 Clear 42 5.8 41 5 95 95 NW 8 13 30.1 1019 10 16.0934 N/A
10:58 pm 22:58 Clear 44 6.8 42 5.5 92 92 WNW 3 6 30.09 1019 10 16.0934 N/A
11:58 pm 23:58 Clear 43 6.1 41 5.2 94 94 NW 6 9 30.1 1019 10 16.0934 0 0

Powered by AerisWeather